sensor_id;sensor_type;location;lat;lon;timestamp;temperature;humidity
85532;SHT35;75970;52.122;5.406;2024-03-02T00:00:49;8.70;69.79
85532;SHT35;75970;52.122;5.406;2024-03-02T00:03:17;8.73;69.66
85532;SHT35;75970;52.122;5.406;2024-03-02T00:05:49;8.73;70.03
85532;SHT35;75970;52.122;5.406;2024-03-02T00:08:23;8.75;70.03
85532;SHT35;75970;52.122;5.406;2024-03-02T00:10:57;8.76;70.51
85532;SHT35;75970;52.122;5.406;2024-03-02T00:13:24;8.79;70.14
85532;SHT35;75970;52.122;5.406;2024-03-02T00:15:54;8.81;69.23
85532;SHT35;75970;52.122;5.406;2024-03-02T00:20:54;8.81;70.14
85532;SHT35;75970;52.122;5.406;2024-03-02T00:23:23;8.84;69.38
85532;SHT35;75970;52.122;5.406;2024-03-02T00:25:53;8.85;70.23
85532;SHT35;75970;52.122;5.406;2024-03-02T00:28:23;8.87;69.60
85532;SHT35;75970;52.122;5.406;2024-03-02T00:33:37;8.88;69.10
85532;SHT35;75970;52.122;5.406;2024-03-02T00:36:07;8.90;69.62
85532;SHT35;75970;52.122;5.406;2024-03-02T00:38:44;8.92;70.21
85532;SHT35;75970;52.122;5.406;2024-03-02T00:44:04;8.97;70.06
85532;SHT35;75970;52.122;5.406;2024-03-02T00:49:03;9.01;71.53
85532;SHT35;75970;52.122;5.406;2024-03-02T00:51:32;9.04;70.71
85532;SHT35;75970;52.122;5.406;2024-03-02T00:54:03;9.02;71.51
85532;SHT35;75970;52.122;5.406;2024-03-02T00:56:32;8.98;71.49
85532;SHT35;75970;52.122;5.406;2024-03-02T00:58:59;8.98;71.64
85532;SHT35;75970;52.122;5.406;2024-03-02T01:01:26;8.94;71.91
85532;SHT35;75970;52.122;5.406;2024-03-02T01:03:54;8.90;72.24
85532;SHT35;75970;52.122;5.406;2024-03-02T01:06:21;8.87;72.56
85532;SHT35;75970;52.122;5.406;2024-03-02T01:08:49;8.84;72.70
85532;SHT35;75970;52.122;5.406;2024-03-02T01:11:20;8.81;72.58
85532;SHT35;75970;52.122;5.406;2024-03-02T01:13:50;8.77;72.81
85532;SHT35;75970;52.122;5.406;2024-03-02T01:16:17;8.75;73.65
85532;SHT35;75970;52.122;5.406;2024-03-02T01:18:44;8.71;73.98
85532;SHT35;75970;52.122;5.406;2024-03-02T01:21:12;8.68;74.38
85532;SHT35;75970;52.122;5.406;2024-03-02T01:23:39;8.66;74.50
85532;SHT35;75970;52.122;5.406;2024-03-02T01:26:06;8.63;74.66
85532;SHT35;75970;52.122;5.406;2024-03-02T01:28:34;8.59;75.59
85532;SHT35;75970;52.122;5.406;2024-03-02T01:31:01;8.52;75.48
85532;SHT35;75970;52.122;5.406;2024-03-02T01:33:29;8.47;75.68
85532;SHT35;75970;52.122;5.406;2024-03-02T01:35:56;8.43;75.77
85532;SHT35;75970;52.122;5.406;2024-03-02T01:38:24;8.40;75.81
85532;SHT35;75970;52.122;5.406;2024-03-02T01:40:51;8.37;76.18
85532;SHT35;75970;52.122;5.406;2024-03-02T01:43:18;8.29;76.76
85532;SHT35;75970;52.122;5.406;2024-03-02T01:45:45;8.27;77.19
85532;SHT35;75970;52.122;5.406;2024-03-02T01:48:13;8.24;77.23
85532;SHT35;75970;52.122;5.406;2024-03-02T01:50:40;8.21;76.92
85532;SHT35;75970;52.122;5.406;2024-03-02T01:53:08;8.19;77.50
85532;SHT35;75970;52.122;5.406;2024-03-02T01:55:35;8.17;77.45
85532;SHT35;75970;52.122;5.406;2024-03-02T01:58:03;8.13;77.87
85532;SHT35;75970;52.122;5.406;2024-03-02T02:00:30;8.14;77.52
85532;SHT35;75970;52.122;5.406;2024-03-02T02:02:57;8.13;77.71
85532;SHT35;75970;52.122;5.406;2024-03-02T02:05:25;8.10;77.70
85532;SHT35;75970;52.122;5.406;2024-03-02T02:07:52;8.08;77.46
85532;SHT35;75970;52.122;5.406;2024-03-02T02:10:19;8.07;78.02
85532;SHT35;75970;52.122;5.406;2024-03-02T02:12:46;8.03;78.15
85532;SHT35;75970;52.122;5.406;2024-03-02T02:15:30;7.99;78.48
85532;SHT35;75970;52.122;5.406;2024-03-02T02:17:58;7.98;78.85
85532;SHT35;75970;52.122;5.406;2024-03-02T02:20:26;7.96;79.19
85532;SHT35;75970;52.122;5.406;2024-03-02T02:23:01;7.92;79.44
85532;SHT35;75970;52.122;5.406;2024-03-02T02:25:29;7.92;79.29
85532;SHT35;75970;52.122;5.406;2024-03-02T02:27:57;7.90;79.60
85532;SHT35;75970;52.122;5.406;2024-03-02T02:30:30;7.84;80.03
85532;SHT35;75970;52.122;5.406;2024-03-02T02:32:58;7.82;80.12
85532;SHT35;75970;52.122;5.406;2024-03-02T02:35:25;7.80;80.37
85532;SHT35;75970;52.122;5.406;2024-03-02T02:37:54;7.78;80.81
85532;SHT35;75970;52.122;5.406;2024-03-02T02:40:22;7.76;80.78
85532;SHT35;75970;52.122;5.406;2024-03-02T02:42:50;7.75;80.81
85532;SHT35;75970;52.122;5.406;2024-03-02T02:45:20;7.74;80.78
85532;SHT35;75970;52.122;5.406;2024-03-02T02:47:48;7.68;81.59
85532;SHT35;75970;52.122;5.406;2024-03-02T02:50:15;7.66;81.50
85532;SHT35;75970;52.122;5.406;2024-03-02T02:52:43;7.64;81.45
85532;SHT35;75970;52.122;5.406;2024-03-02T02:55:12;7.61;80.85
85532;SHT35;75970;52.122;5.406;2024-03-02T02:57:40;7.58;80.49
85532;SHT35;75970;52.122;5.406;2024-03-02T03:00:14;7.55;80.46
85532;SHT35;75970;52.122;5.406;2024-03-02T03:02:49;7.54;80.55
85532;SHT35;75970;52.122;5.406;2024-03-02T03:05:18;7.53;80.70
85532;SHT35;75970;52.122;5.406;2024-03-02T03:07:45;7.51;80.63
85532;SHT35;75970;52.122;5.406;2024-03-02T03:10:13;7.51;80.87
85532;SHT35;75970;52.122;5.406;2024-03-02T03:12:42;7.50;81.05
85532;SHT35;75970;52.122;5.406;2024-03-02T03:15:11;7.50;81.23
85532;SHT35;75970;52.122;5.406;2024-03-02T03:17:39;7.47;81.19
85532;SHT35;75970;52.122;5.406;2024-03-02T03:20:06;7.43;81.23
85532;SHT35;75970;52.122;5.406;2024-03-02T03:22:39;7.38;81.22
85532;SHT35;75970;52.122;5.406;2024-03-02T03:25:07;7.32;81.12
85532;SHT35;75970;52.122;5.406;2024-03-02T03:27:36;7.30;81.04
85532;SHT35;75970;52.122;5.406;2024-03-02T03:30:03;7.25;80.89
85532;SHT35;75970;52.122;5.406;2024-03-02T03:32:34;7.25;80.41
85532;SHT35;75970;52.122;5.406;2024-03-02T03:35:01;7.23;79.98
85532;SHT35;75970;52.122;5.406;2024-03-02T03:37:29;7.17;80.56
85532;SHT35;75970;52.122;5.406;2024-03-02T03:40:02;7.15;80.57
85532;SHT35;75970;52.122;5.406;2024-03-02T03:42:33;7.14;80.70
85532;SHT35;75970;52.122;5.406;2024-03-02T03:45:01;7.12;80.81
85532;SHT35;75970;52.122;5.406;2024-03-02T03:47:28;7.11;80.71
85532;SHT35;75970;52.122;5.406;2024-03-02T03:49:55;7.11;81.51
85532;SHT35;75970;52.122;5.406;2024-03-02T03:52:22;7.10;81.24
85532;SHT35;75970;52.122;5.406;2024-03-02T03:54:50;7.10;81.44
85532;SHT35;75970;52.122;5.406;2024-03-02T03:57:17;7.11;81.33
85532;SHT35;75970;52.122;5.406;2024-03-02T03:59:44;7.12;81.62
85532;SHT35;75970;52.122;5.406;2024-03-02T04:02:13;7.12;81.56
85532;SHT35;75970;52.122;5.406;2024-03-02T04:04:40;7.15;81.46
85532;SHT35;75970;52.122;5.406;2024-03-02T04:07:07;7.18;81.30
85532;SHT35;75970;52.122;5.406;2024-03-02T04:09:34;7.19;81.41
85532;SHT35;75970;52.122;5.406;2024-03-02T04:12:02;7.22;80.62
85532;SHT35;75970;52.122;5.406;2024-03-02T04:14:29;7.22;80.96
85532;SHT35;75970;52.122;5.406;2024-03-02T04:16:56;7.25;80.49
85532;SHT35;75970;52.122;5.406;2024-03-02T04:19:23;7.27;80.80
85532;SHT35;75970;52.122;5.406;2024-03-02T04:21:50;7.29;79.99
85532;SHT35;75970;52.122;5.406;2024-03-02T04:24:17;7.29;80.73
85532;SHT35;75970;52.122;5.406;2024-03-02T04:26:45;7.30;80.31
85532;SHT35;75970;52.122;5.406;2024-03-02T04:29:12;7.30;80.60
85532;SHT35;75970;52.122;5.406;2024-03-02T04:31:39;7.31;80.42
85532;SHT35;75970;52.122;5.406;2024-03-02T04:34:06;7.30;80.70
85532;SHT35;75970;52.122;5.406;2024-03-02T04:36:33;7.33;80.53
85532;SHT35;75970;52.122;5.406;2024-03-02T04:39:00;7.36;80.57
85532;SHT35;75970;52.122;5.406;2024-03-02T04:41:28;7.37;80.27
85532;SHT35;75970;52.122;5.406;2024-03-02T04:43:55;7.39;79.64
85532;SHT35;75970;52.122;5.406;2024-03-02T04:46:22;7.40;79.69
85532;SHT35;75970;52.122;5.406;2024-03-02T04:48:49;7.34;79.37
85532;SHT35;75970;52.122;5.406;2024-03-02T04:51:22;7.36;79.53
85532;SHT35;75970;52.122;5.406;2024-03-02T04:53:49;7.38;79.41
85532;SHT35;75970;52.122;5.406;2024-03-02T04:56:17;7.38;79.60
85532;SHT35;75970;52.122;5.406;2024-03-02T04:59:06;7.40;79.55
85532;SHT35;75970;52.122;5.406;2024-03-02T05:01:33;7.40;79.64
85532;SHT35;75970;52.122;5.406;2024-03-02T05:04:00;7.41;79.11
85532;SHT35;75970;52.122;5.406;2024-03-02T05:06:28;7.39;79.25
85532;SHT35;75970;52.122;5.406;2024-03-02T05:08:55;7.36;79.78
85532;SHT35;75970;52.122;5.406;2024-03-02T05:11:23;7.37;79.47
85532;SHT35;75970;52.122;5.406;2024-03-02T05:14:15;7.38;78.61
85532;SHT35;75970;52.122;5.406;2024-03-02T05:16:43;7.39;78.54
85532;SHT35;75970;52.122;5.406;2024-03-02T05:19:10;7.39;78.23
85532;SHT35;75970;52.122;5.406;2024-03-02T05:21:37;7.40;78.17
85532;SHT35;75970;52.122;5.406;2024-03-02T05:24:04;7.42;78.09
85532;SHT35;75970;52.122;5.406;2024-03-02T05:26:32;7.43;78.14
85532;SHT35;75970;52.122;5.406;2024-03-02T05:28:59;7.42;77.84
85532;SHT35;75970;52.122;5.406;2024-03-02T05:31:26;7.38;77.79
85532;SHT35;75970;52.122;5.406;2024-03-02T05:33:53;7.39;77.83
85532;SHT35;75970;52.122;5.406;2024-03-02T05:36:24;7.40;77.37
85532;SHT35;75970;52.122;5.406;2024-03-02T05:38:51;7.40;77.10
85532;SHT35;75970;52.122;5.406;2024-03-02T05:41:18;7.40;76.46
85532;SHT35;75970;52.122;5.406;2024-03-02T05:43:45;7.36;76.40
85532;SHT35;75970;52.122;5.406;2024-03-02T05:46:13;7.33;75.74
85532;SHT35;75970;52.122;5.406;2024-03-02T05:48:40;7.28;75.30
85532;SHT35;75970;52.122;5.406;2024-03-02T05:51:07;7.26;74.85
85532;SHT35;75970;52.122;5.406;2024-03-02T05:53:35;7.19;74.98
85532;SHT35;75970;52.122;5.406;2024-03-02T05:56:05;7.15;75.08
85532;SHT35;75970;52.122;5.406;2024-03-02T05:58:32;7.13;75.57
85532;SHT35;75970;52.122;5.406;2024-03-02T06:01:13;7.10;74.87
85532;SHT35;75970;52.122;5.406;2024-03-02T06:03:40;7.07;75.70
85532;SHT35;75970;52.122;5.406;2024-03-02T06:06:07;7.06;75.66
85532;SHT35;75970;52.122;5.406;2024-03-02T06:08:34;7.06;75.74
85532;SHT35;75970;52.122;5.406;2024-03-02T06:11:02;7.08;76.11
85532;SHT35;75970;52.122;5.406;2024-03-02T06:13:29;7.07;75.59
85532;SHT35;75970;52.122;5.406;2024-03-02T06:15:56;7.06;76.38
85532;SHT35;75970;52.122;5.406;2024-03-02T06:18:24;7.05;76.37
85532;SHT35;75970;52.122;5.406;2024-03-02T06:20:51;7.04;76.77
85532;SHT35;75970;52.122;5.406;2024-03-02T06:23:18;7.06;76.76
85532;SHT35;75970;52.122;5.406;2024-03-02T06:25:45;7.04;76.97
85532;SHT35;75970;52.122;5.406;2024-03-02T06:28:12;7.04;77.13
85532;SHT35;75970;52.122;5.406;2024-03-02T06:30:42;7.04;77.57
85532;SHT35;75970;52.122;5.406;2024-03-02T06:33:10;7.07;77.68
85532;SHT35;75970;52.122;5.406;2024-03-02T06:35:37;7.11;77.57
85532;SHT35;75970;52.122;5.406;2024-03-02T06:38:06;7.11;77.22
85532;SHT35;75970;52.122;5.406;2024-03-02T06:40:33;7.13;77.33
85532;SHT35;75970;52.122;5.406;2024-03-02T06:43:01;7.15;77.76
85532;SHT35;75970;52.122;5.406;2024-03-02T06:45:28;7.17;77.24
85532;SHT35;75970;52.122;5.406;2024-03-02T06:47:57;7.18;77.36
85532;SHT35;75970;52.122;5.406;2024-03-02T06:50:24;7.20;77.38
85532;SHT35;75970;52.122;5.406;2024-03-02T06:52:52;7.20;76.83
85532;SHT35;75970;52.122;5.406;2024-03-02T06:55:19;7.22;76.81
85532;SHT35;75970;52.122;5.406;2024-03-02T06:57:47;7.24;76.15
85532;SHT35;75970;52.122;5.406;2024-03-02T07:00:14;7.21;76.62
85532;SHT35;75970;52.122;5.406;2024-03-02T07:02:41;7.21;76.24
85532;SHT35;75970;52.122;5.406;2024-03-02T07:05:08;7.21;76.22
85532;SHT35;75970;52.122;5.406;2024-03-02T07:07:36;7.21;76.55
85532;SHT35;75970;52.122;5.406;2024-03-02T07:10:04;7.22;76.29
85532;SHT35;75970;52.122;5.406;2024-03-02T07:12:32;7.23;76.78
85532;SHT35;75970;52.122;5.406;2024-03-02T07:14:59;7.23;76.74
85532;SHT35;75970;52.122;5.406;2024-03-02T07:17:32;7.21;76.58
85532;SHT35;75970;52.122;5.406;2024-03-02T07:20:00;7.22;76.76
85532;SHT35;75970;52.122;5.406;2024-03-02T07:22:27;7.22;76.83
85532;SHT35;75970;52.122;5.406;2024-03-02T07:24:54;7.23;76.78
85532;SHT35;75970;52.122;5.406;2024-03-02T07:27:21;7.24;76.72
85532;SHT35;75970;52.122;5.406;2024-03-02T07:29:49;7.25;76.13
85532;SHT35;75970;52.122;5.406;2024-03-02T07:32:16;7.32;76.57
85532;SHT35;75970;52.122;5.406;2024-03-02T07:34:43;7.36;76.14
85532;SHT35;75970;52.122;5.406;2024-03-02T07:37:10;7.39;75.98
85532;SHT35;75970;52.122;5.406;2024-03-02T07:39:37;7.41;76.12
85532;SHT35;75970;52.122;5.406;2024-03-02T07:42:06;7.42;76.29
85532;SHT35;75970;52.122;5.406;2024-03-02T07:44:33;7.46;76.32
85532;SHT35;75970;52.122;5.406;2024-03-02T07:47:01;7.50;75.81
85532;SHT35;75970;52.122;5.406;2024-03-02T07:49:28;7.52;75.43
85532;SHT35;75970;52.122;5.406;2024-03-02T07:51:55;7.54;75.21
85532;SHT35;75970;52.122;5.406;2024-03-02T07:54:22;7.56;75.11
85532;SHT35;75970;52.122;5.406;2024-03-02T07:56:50;7.57;75.07
85532;SHT35;75970;52.122;5.406;2024-03-02T07:59:18;7.57;74.94
85532;SHT35;75970;52.122;5.406;2024-03-02T08:01:45;7.55;75.21
85532;SHT35;75970;52.122;5.406;2024-03-02T08:04:12;7.53;74.94
85532;SHT35;75970;52.122;5.406;2024-03-02T08:06:39;7.50;74.85
85532;SHT35;75970;52.122;5.406;2024-03-02T08:09:07;7.50;75.02
85532;SHT35;75970;52.122;5.406;2024-03-02T08:11:37;7.49;74.96
85532;SHT35;75970;52.122;5.406;2024-03-02T08:14:04;7.45;75.01
85532;SHT35;75970;52.122;5.406;2024-03-02T08:16:31;7.42;75.31
85532;SHT35;75970;52.122;5.406;2024-03-02T08:19:00;7.43;75.60
85532;SHT35;75970;52.122;5.406;2024-03-02T08:21:27;7.42;75.46
85532;SHT35;75970;52.122;5.406;2024-03-02T08:23:58;7.44;75.93
85532;SHT35;75970;52.122;5.406;2024-03-02T08:26:28;7.47;75.28
85532;SHT35;75970;52.122;5.406;2024-03-02T08:28:57;7.46;74.99
85532;SHT35;75970;52.122;5.406;2024-03-02T08:31:24;7.48;75.88
85532;SHT35;75970;52.122;5.406;2024-03-02T08:33:51;7.53;75.86
85532;SHT35;75970;52.122;5.406;2024-03-02T08:36:18;7.58;75.21
85532;SHT35;75970;52.122;5.406;2024-03-02T08:38:48;7.64;75.78
85532;SHT35;75970;52.122;5.406;2024-03-02T08:41:16;7.72;75.39
85532;SHT35;75970;52.122;5.406;2024-03-02T08:43:43;7.80;75.25
85532;SHT35;75970;52.122;5.406;2024-03-02T08:46:11;7.86;74.65
85532;SHT35;75970;52.122;5.406;2024-03-02T08:48:39;7.92;74.28
85532;SHT35;75970;52.122;5.406;2024-03-02T08:51:06;7.98;74.51
85532;SHT35;75970;52.122;5.406;2024-03-02T08:53:34;8.06;74.29
85532;SHT35;75970;52.122;5.406;2024-03-02T08:56:02;8.10;73.24
85532;SHT35;75970;52.122;5.406;2024-03-02T08:58:29;8.15;73.95
85532;SHT35;75970;52.122;5.406;2024-03-02T09:00:56;8.21;73.57
85532;SHT35;75970;52.122;5.406;2024-03-02T09:03:24;8.26;73.28
85532;SHT35;75970;52.122;5.406;2024-03-02T09:05:54;8.32;73.14
85532;SHT35;75970;52.122;5.406;2024-03-02T09:08:22;8.43;72.38
85532;SHT35;75970;52.122;5.406;2024-03-02T09:10:51;8.48;72.25
85532;SHT35;75970;52.122;5.406;2024-03-02T09:13:21;8.53;71.90
85532;SHT35;75970;52.122;5.406;2024-03-02T09:15:49;8.61;71.82
85532;SHT35;75970;52.122;5.406;2024-03-02T09:18:16;8.64;71.70
85532;SHT35;75970;52.122;5.406;2024-03-02T09:20:43;8.69;70.82
85532;SHT35;75970;52.122;5.406;2024-03-02T09:23:10;8.78;71.04
85532;SHT35;75970;52.122;5.406;2024-03-02T09:25:37;8.82;69.62
85532;SHT35;75970;52.122;5.406;2024-03-02T09:28:06;8.87;68.67
85532;SHT35;75970;52.122;5.406;2024-03-02T09:30:34;8.94;69.29
85532;SHT35;75970;52.122;5.406;2024-03-02T09:33:01;8.99;68.31
85532;SHT35;75970;52.122;5.406;2024-03-02T09:35:32;9.05;68.61
85532;SHT35;75970;52.122;5.406;2024-03-02T09:37:59;9.11;68.61
85532;SHT35;75970;52.122;5.406;2024-03-02T09:40:26;9.18;67.25
85532;SHT35;75970;52.122;5.406;2024-03-02T09:42:54;9.28;67.69
85532;SHT35;75970;52.122;5.406;2024-03-02T09:45:24;9.39;67.00
85532;SHT35;75970;52.122;5.406;2024-03-02T09:47:51;9.46;65.04
85532;SHT35;75970;52.122;5.406;2024-03-02T09:50:19;9.52;65.03
85532;SHT35;75970;52.122;5.406;2024-03-02T09:52:49;9.51;63.96
85532;SHT35;75970;52.122;5.406;2024-03-02T09:55:18;9.54;64.41
85532;SHT35;75970;52.122;5.406;2024-03-02T09:57:46;9.58;64.51
85532;SHT35;75970;52.122;5.406;2024-03-02T10:00:15;9.64;64.73
85532;SHT35;75970;52.122;5.406;2024-03-02T10:02:43;9.69;64.24
85532;SHT35;75970;52.122;5.406;2024-03-02T10:05:10;9.77;64.63
85532;SHT35;75970;52.122;5.406;2024-03-02T10:07:39;9.84;64.56
85532;SHT35;75970;52.122;5.406;2024-03-02T10:10:15;9.94;65.15
85532;SHT35;75970;52.122;5.406;2024-03-02T10:12:43;10.02;64.38
85532;SHT35;75970;52.122;5.406;2024-03-02T10:15:10;10.10;63.70
85532;SHT35;75970;52.122;5.406;2024-03-02T10:17:37;10.19;62.62
85532;SHT35;75970;52.122;5.406;2024-03-02T10:20:31;10.24;62.91
85532;SHT35;75970;52.122;5.406;2024-03-02T10:23:13;10.29;62.82
85532;SHT35;75970;52.122;5.406;2024-03-02T10:25:42;10.32;61.14
85532;SHT35;75970;52.122;5.406;2024-03-02T10:28:23;10.36;61.41
85532;SHT35;75970;52.122;5.406;2024-03-02T10:30:51;10.43;61.42
85532;SHT35;75970;52.122;5.406;2024-03-02T10:33:20;10.46;61.60
85532;SHT35;75970;52.122;5.406;2024-03-02T10:35:49;10.50;62.14
85532;SHT35;75970;52.122;5.406;2024-03-02T10:38:17;10.57;61.68
85532;SHT35;75970;52.122;5.406;2024-03-02T10:40:47;10.61;61.38
85532;SHT35;75970;52.122;5.406;2024-03-02T10:43:17;10.65;60.65
85532;SHT35;75970;52.122;5.406;2024-03-02T10:45:49;10.71;60.87
85532;SHT35;75970;52.122;5.406;2024-03-02T10:48:18;10.76;60.61
85532;SHT35;75970;52.122;5.406;2024-03-02T10:50:46;10.81;60.70
85532;SHT35;75970;52.122;5.406;2024-03-02T10:53:13;10.91;60.96
85532;SHT35;75970;52.122;5.406;2024-03-02T10:55:40;11.01;59.91
85532;SHT35;75970;52.122;5.406;2024-03-02T10:58:12;11.07;60.22
85532;SHT35;75970;52.122;5.406;2024-03-02T11:00:41;11.17;59.52
85532;SHT35;75970;52.122;5.406;2024-03-02T11:03:10;11.26;60.32
85532;SHT35;75970;52.122;5.406;2024-03-02T11:05:43;11.36;60.57
85532;SHT35;75970;52.122;5.406;2024-03-02T11:08:18;11.45;59.53
85532;SHT35;75970;52.122;5.406;2024-03-02T11:10:51;11.47;57.63
85532;SHT35;75970;52.122;5.406;2024-03-02T11:13:32;11.49;57.98
85532;SHT35;75970;52.122;5.406;2024-03-02T11:16:10;11.55;57.03
85532;SHT35;75970;52.122;5.406;2024-03-02T11:18:41;11.59;57.66
85532;SHT35;75970;52.122;5.406;2024-03-02T11:21:09;11.64;58.08
85532;SHT35;75970;52.122;5.406;2024-03-02T11:23:37;11.69;57.62
85532;SHT35;75970;52.122;5.406;2024-03-02T11:26:19;11.75;56.36
85532;SHT35;75970;52.122;5.406;2024-03-02T11:28:47;11.76;56.70
85532;SHT35;75970;52.122;5.406;2024-03-02T11:31:15;11.80;57.13
85532;SHT35;75970;52.122;5.406;2024-03-02T11:33:42;11.91;58.05
85532;SHT35;75970;52.122;5.406;2024-03-02T11:36:10;12.01;56.37
85532;SHT35;75970;52.122;5.406;2024-03-02T11:38:38;12.09;54.36
85532;SHT35;75970;52.122;5.406;2024-03-02T11:41:07;12.11;54.50
85532;SHT35;75970;52.122;5.406;2024-03-02T11:43:39;12.16;54.82
85532;SHT35;75970;52.122;5.406;2024-03-02T11:46:07;12.21;55.04
85532;SHT35;75970;52.122;5.406;2024-03-02T11:48:36;12.24;54.72
85532;SHT35;75970;52.122;5.406;2024-03-02T11:51:05;12.29;55.33
85532;SHT35;75970;52.122;5.406;2024-03-02T11:53:33;12.37;53.47
85532;SHT35;75970;52.122;5.406;2024-03-02T11:56:03;12.37;53.96
85532;SHT35;75970;52.122;5.406;2024-03-02T11:58:31;12.43;53.28
85532;SHT35;75970;52.122;5.406;2024-03-02T12:00:58;12.45;53.51
85532;SHT35;75970;52.122;5.406;2024-03-02T12:03:26;12.44;53.22
85532;SHT35;75970;52.122;5.406;2024-03-02T12:05:54;12.45;53.72
85532;SHT35;75970;52.122;5.406;2024-03-02T12:08:21;12.51;53.27
85532;SHT35;75970;52.122;5.406;2024-03-02T12:11:01;12.51;52.50
85532;SHT35;75970;52.122;5.406;2024-03-02T12:13:30;12.54;53.73
85532;SHT35;75970;52.122;5.406;2024-03-02T12:15:58;12.61;52.81
85532;SHT35;75970;52.122;5.406;2024-03-02T12:18:26;12.70;52.51
85532;SHT35;75970;52.122;5.406;2024-03-02T12:20:54;12.77;52.94
85532;SHT35;75970;52.122;5.406;2024-03-02T12:23:25;12.85;51.98
85532;SHT35;75970;52.122;5.406;2024-03-02T12:25:52;12.91;53.04
85532;SHT35;75970;52.122;5.406;2024-03-02T12:28:21;12.97;52.56
85532;SHT35;75970;52.122;5.406;2024-03-02T12:30:49;13.02;53.00
85532;SHT35;75970;52.122;5.406;2024-03-02T12:33:17;13.10;52.35
85532;SHT35;75970;52.122;5.406;2024-03-02T12:35:44;13.18;52.38
85532;SHT35;75970;52.122;5.406;2024-03-02T12:38:11;13.21;50.84
85532;SHT35;75970;52.122;5.406;2024-03-02T12:40:39;13.23;51.35
85532;SHT35;75970;52.122;5.406;2024-03-02T12:43:06;13.22;51.81
85532;SHT35;75970;52.122;5.406;2024-03-02T12:45:34;13.29;52.76
85532;SHT35;75970;52.122;5.406;2024-03-02T12:48:04;13.36;52.90
85532;SHT35;75970;52.122;5.406;2024-03-02T12:50:33;13.41;51.55
85532;SHT35;75970;52.122;5.406;2024-03-02T12:53:01;13.48;53.51
85532;SHT35;75970;52.122;5.406;2024-03-02T12:55:29;13.54;53.41
85532;SHT35;75970;52.122;5.406;2024-03-02T12:57:57;13.63;52.28
85532;SHT35;75970;52.122;5.406;2024-03-02T13:00:26;13.66;51.27
85532;SHT35;75970;52.122;5.406;2024-03-02T13:02:54;13.65;52.04
85532;SHT35;75970;52.122;5.406;2024-03-02T13:05:34;13.64;51.19
85532;SHT35;75970;52.122;5.406;2024-03-02T13:08:02;13.64;52.63
85532;SHT35;75970;52.122;5.406;2024-03-02T13:10:32;13.65;51.81
85532;SHT35;75970;52.122;5.406;2024-03-02T13:13:00;13.67;51.14
85532;SHT35;75970;52.122;5.406;2024-03-02T13:15:27;13.73;52.36
85532;SHT35;75970;52.122;5.406;2024-03-02T13:17:58;13.81;52.50
85532;SHT35;75970;52.122;5.406;2024-03-02T13:20:30;13.83;52.07
85532;SHT35;75970;52.122;5.406;2024-03-02T13:22:58;13.90;51.95
85532;SHT35;75970;52.122;5.406;2024-03-02T13:25:25;13.92;52.09
85532;SHT35;75970;52.122;5.406;2024-03-02T13:27:57;13.88;51.48
85532;SHT35;75970;52.122;5.406;2024-03-02T13:30:24;13.85;50.71
85532;SHT35;75970;52.122;5.406;2024-03-02T13:32:51;13.82;51.59
85532;SHT35;75970;52.122;5.406;2024-03-02T13:35:20;13.82;50.92
85532;SHT35;75970;52.122;5.406;2024-03-02T13:37:47;13.80;51.14
85532;SHT35;75970;52.122;5.406;2024-03-02T13:40:14;13.79;51.29
85532;SHT35;75970;52.122;5.406;2024-03-02T13:42:44;13.78;51.62
85532;SHT35;75970;52.122;5.406;2024-03-02T13:45:13;13.88;51.20
85532;SHT35;75970;52.122;5.406;2024-03-02T13:47:41;14.19;51.21
85532;SHT35;75970;52.122;5.406;2024-03-02T13:50:09;15.38;47.96
85532;SHT35;75970;52.122;5.406;2024-03-02T13:52:36;16.18;46.05
85532;SHT35;75970;52.122;5.406;2024-03-02T13:55:03;16.12;45.38
85532;SHT35;75970;52.122;5.406;2024-03-02T13:57:31;16.21;46.71
85532;SHT35;75970;52.122;5.406;2024-03-02T13:59:58;16.65;45.62
85532;SHT35;75970;52.122;5.406;2024-03-02T14:02:25;16.91;44.15
85532;SHT35;75970;52.122;5.406;2024-03-02T14:04:53;16.93;43.56
85532;SHT35;75970;52.122;5.406;2024-03-02T14:07:20;16.49;45.40
85532;SHT35;75970;52.122;5.406;2024-03-02T14:09:49;16.12;45.10
85532;SHT35;75970;52.122;5.406;2024-03-02T14:12:21;15.91;46.72
85532;SHT35;75970;52.122;5.406;2024-03-02T14:14:49;15.87;45.97
85532;SHT35;75970;52.122;5.406;2024-03-02T14:17:18;15.78;47.30
85532;SHT35;75970;52.122;5.406;2024-03-02T14:19:45;15.71;47.54
85532;SHT35;75970;52.122;5.406;2024-03-02T14:22:12;15.54;47.31
85532;SHT35;75970;52.122;5.406;2024-03-02T14:24:44;15.33;48.13
85532;SHT35;75970;52.122;5.406;2024-03-02T14:27:11;15.19;48.71
85532;SHT35;75970;52.122;5.406;2024-03-02T14:29:58;15.17;49.14
85532;SHT35;75970;52.122;5.406;2024-03-02T14:32:25;15.12;47.92
85532;SHT35;75970;52.122;5.406;2024-03-02T14:34:52;14.93;48.56
85532;SHT35;75970;52.122;5.406;2024-03-02T14:37:20;14.76;48.85
85532;SHT35;75970;52.122;5.406;2024-03-02T14:39:48;14.67;50.15
85532;SHT35;75970;52.122;5.406;2024-03-02T14:42:16;14.60;50.27
85532;SHT35;75970;52.122;5.406;2024-03-02T14:44:43;14.53;49.93
85532;SHT35;75970;52.122;5.406;2024-03-02T14:47:11;14.36;50.48
85532;SHT35;75970;52.122;5.406;2024-03-02T14:49:38;14.30;50.33
85532;SHT35;75970;52.122;5.406;2024-03-02T14:52:08;14.24;50.42
85532;SHT35;75970;52.122;5.406;2024-03-02T14:54:36;14.27;50.47
85532;SHT35;75970;52.122;5.406;2024-03-02T14:57:04;14.27;50.56
85532;SHT35;75970;52.122;5.406;2024-03-02T14:59:31;14.29;49.92
85532;SHT35;75970;52.122;5.406;2024-03-02T15:01:58;14.27;50.35
85532;SHT35;75970;52.122;5.406;2024-03-02T15:04:25;14.23;50.65
85532;SHT35;75970;52.122;5.406;2024-03-02T15:06:54;14.21;50.76
85532;SHT35;75970;52.122;5.406;2024-03-02T15:09:21;14.19;50.54
85532;SHT35;75970;52.122;5.406;2024-03-02T15:11:48;14.14;49.43
85532;SHT35;75970;52.122;5.406;2024-03-02T15:14:15;13.96;49.92
85532;SHT35;75970;52.122;5.406;2024-03-02T15:16:43;13.91;50.74
85532;SHT35;75970;52.122;5.406;2024-03-02T15:19:10;13.85;50.76
85532;SHT35;75970;52.122;5.406;2024-03-02T15:21:37;13.80;51.39
85532;SHT35;75970;52.122;5.406;2024-03-02T15:24:04;13.78;52.30
85532;SHT35;75970;52.122;5.406;2024-03-02T15:26:32;13.77;52.45
85532;SHT35;75970;52.122;5.406;2024-03-02T15:28:59;13.76;52.27
85532;SHT35;75970;52.122;5.406;2024-03-02T15:31:26;13.74;52.36
85532;SHT35;75970;52.122;5.406;2024-03-02T15:33:53;13.72;52.61
85532;SHT35;75970;52.122;5.406;2024-03-02T15:36:23;13.65;52.36
85532;SHT35;75970;52.122;5.406;2024-03-02T15:38:50;13.60;51.81
85532;SHT35;75970;52.122;5.406;2024-03-02T15:41:17;13.52;52.30
85532;SHT35;75970;52.122;5.406;2024-03-02T15:43:44;13.45;52.46
85532;SHT35;75970;52.122;5.406;2024-03-02T15:46:11;13.41;52.19
85532;SHT35;75970;52.122;5.406;2024-03-02T15:48:39;13.30;52.65
85532;SHT35;75970;52.122;5.406;2024-03-02T15:51:06;13.25;53.07
85532;SHT35;75970;52.122;5.406;2024-03-02T15:53:33;13.20;53.14
85532;SHT35;75970;52.122;5.406;2024-03-02T15:56:00;13.17;53.55
85532;SHT35;75970;52.122;5.406;2024-03-02T15:58:30;13.14;54.04